N623GA KCLE-KDAY
Flight info
| Callsign | N623GA |
|---|---|
| Flight time | 0h 55m |
| Altitude | 8000 |
| Route | ZAAPA6 ZAAPA ROD |
| Aircraft | KODI/L-SBDGRY/S |
Departure
| Time | 2026-04-25 14:42 |
|---|---|
| Airport | Cleveland Hopkins International Airport (KCLE) |
Arrival
| Time | 2026-04-25 15:38 |
|---|---|
| Airport | James M. Cox Dayton International Airport (KDAY) |
| Time | Latitude | Longitude | Altitude | Speed | Heading |
|---|---|---|---|---|---|
| 2026-04-25 14:12 | 41.40209 | -81.85432 | 777 ft | 0 kts | 271° |
| 2026-04-25 14:35 | 41.40202 | -81.85414 | 779 ft | 7 kts | 55° |
| 2026-04-25 14:36 | 41.40259 | -81.85395 | 777 ft | 9 kts | 334° |
| 2026-04-25 14:36 | 41.40329 | -81.85431 | 777 ft | 13 kts | 350° |
| 2026-04-25 14:36 | 41.40424 | -81.85472 | 777 ft | 18 kts | 339° |
| 2026-04-25 14:36 | 41.40556 | -81.85504 | 777 ft | 23 kts | 36° |
| 2026-04-25 14:37 | 41.40676 | -81.85333 | 778 ft | 27 kts | 49° |
| 2026-04-25 14:37 | 41.40799 | -81.85140 | 779 ft | 26 kts | 51° |
| 2026-04-25 14:37 | 41.40923 | -81.84946 | 779 ft | 28 kts | 50° |
| 2026-04-25 14:37 | 41.41042 | -81.84755 | 779 ft | 25 kts | 49° |
| 2026-04-25 14:38 | 41.41143 | -81.84597 | 777 ft | 20 kts | 51° |
| 2026-04-25 14:38 | 41.41227 | -81.84462 | 777 ft | 19 kts | 50° |
| 2026-04-25 14:38 | 41.41309 | -81.84333 | 777 ft | 18 kts | 51° |
| 2026-04-25 14:38 | 41.41386 | -81.84212 | 776 ft | 17 kts | 50° |
| 2026-04-25 14:39 | 41.41454 | -81.84146 | 776 ft | 4 kts | 322° |
| 2026-04-25 14:39 | 41.41455 | -81.84146 | 776 ft | 0 kts | 321° |
| 2026-04-25 14:41 | 41.41464 | -81.84155 | 776 ft | 10 kts | 326° |
| 2026-04-25 14:41 | 41.41457 | -81.84327 | 775 ft | 47 kts | 230° |
| 2026-04-25 14:42 | 41.41114 | -81.84810 | 850 ft | 85 kts | 225° |
| 2026-04-25 14:42 | 41.40815 | -81.85205 | 938 ft | 96 kts | 233° |
| 2026-04-25 14:42 | 41.40123 | -81.86233 | 1045 ft | 132 kts | 221° |
| 2026-04-25 14:42 | 41.39465 | -81.87047 | 1425 ft | 126 kts | 238° |
| 2026-04-25 14:43 | 41.38910 | -81.87953 | 1775 ft | 126 kts | 247° |
| 2026-04-25 14:43 | 41.38543 | -81.89012 | 2109 ft | 127 kts | 253° |
| 2026-04-25 14:43 | 41.38177 | -81.90106 | 2457 ft | 130 kts | 256° |
| 2026-04-25 14:43 | 41.37827 | -81.91187 | 2830 ft | 128 kts | 256° |
| 2026-04-25 14:44 | 41.37477 | -81.92276 | 3187 ft | 130 kts | 255° |
| 2026-04-25 14:44 | 41.37124 | -81.93383 | 3590 ft | 129 kts | 256° |
| 2026-04-25 14:44 | 41.36773 | -81.94478 | 4038 ft | 128 kts | 256° |
| 2026-04-25 14:44 | 41.36424 | -81.95576 | 4496 ft | 129 kts | 255° |
| 2026-04-25 14:45 | 41.36073 | -81.96681 | 4974 ft | 129 kts | 256° |
| 2026-04-25 14:45 | 41.35721 | -81.97794 | 5398 ft | 132 kts | 256° |
| 2026-04-25 14:45 | 41.35361 | -81.98929 | 5829 ft | 134 kts | 256° |
| 2026-04-25 14:45 | 41.34986 | -82.00145 | 5996 ft | 154 kts | 256° |
| 2026-04-25 14:46 | 41.34549 | -82.01546 | 6005 ft | 172 kts | 254° |
| 2026-04-25 14:46 | 41.34068 | -82.03036 | 6007 ft | 178 kts | 253° |
| 2026-04-25 14:46 | 41.33573 | -82.04569 | 6012 ft | 181 kts | 253° |
| 2026-04-25 14:46 | 41.33083 | -82.06098 | 6014 ft | 183 kts | 253° |
| 2026-04-25 14:47 | 41.32579 | -82.07679 | 6014 ft | 184 kts | 253° |
| 2026-04-25 14:47 | 41.32247 | -82.08715 | 6014 ft | 184 kts | 253° |
| 2026-04-25 14:47 | 41.31586 | -82.10780 | 6016 ft | 183 kts | 253° |
| 2026-04-25 14:47 | 41.31086 | -82.12345 | 6014 ft | 184 kts | 253° |
| 2026-04-25 14:48 | 41.30582 | -82.13919 | 6016 ft | 185 kts | 253° |
| 2026-04-25 14:48 | 41.30078 | -82.15492 | 6016 ft | 184 kts | 253° |
| 2026-04-25 14:48 | 41.29577 | -82.17059 | 6016 ft | 184 kts | 253° |
| 2026-04-25 14:48 | 41.29075 | -82.18628 | 6019 ft | 184 kts | 253° |
| 2026-04-25 14:49 | 41.28573 | -82.20196 | 6016 ft | 184 kts | 253° |
| 2026-04-25 14:49 | 41.28070 | -82.21769 | 6016 ft | 184 kts | 253° |
| 2026-04-25 14:49 | 41.27501 | -82.23301 | 6010 ft | 186 kts | 247° |
| 2026-04-25 14:49 | 41.26902 | -82.24733 | 6395 ft | 166 kts | 248° |
| 2026-04-25 14:50 | 41.26381 | -82.26003 | 6858 ft | 152 kts | 249° |
| 2026-04-25 14:50 | 41.25894 | -82.27202 | 7334 ft | 143 kts | 250° |
| 2026-04-25 14:50 | 41.25425 | -82.28361 | 7755 ft | 143 kts | 250° |
| 2026-04-25 14:50 | 41.24948 | -82.29559 | 8001 ft | 156 kts | 250° |
| 2026-04-25 14:51 | 41.24409 | -82.30921 | 8002 ft | 175 kts | 248° |
| 2026-04-25 14:51 | 41.23805 | -82.32397 | 8008 ft | 188 kts | 247° |
| 2026-04-25 14:51 | 41.23165 | -82.33947 | 8010 ft | 194 kts | 247° |
| 2026-04-25 14:51 | 41.22510 | -82.35539 | 8014 ft | 198 kts | 247° |
| 2026-04-25 14:52 | 41.21849 | -82.37157 | 8011 ft | 200 kts | 247° |
| 2026-04-25 14:52 | 41.21182 | -82.38784 | 8011 ft | 201 kts | 247° |
| 2026-04-25 14:52 | 41.20514 | -82.40417 | 8001 ft | 201 kts | 246° |
| 2026-04-25 14:52 | 41.20073 | -82.41493 | 7993 ft | 201 kts | 247° |
| 2026-04-25 14:53 | 41.19181 | -82.43669 | 7995 ft | 200 kts | 247° |
| 2026-04-25 14:53 | 41.18641 | -82.45349 | 7991 ft | 197 kts | 258° |
| 2026-04-25 14:53 | 41.18216 | -82.47054 | 7990 ft | 197 kts | 257° |
| 2026-04-25 14:53 | 41.17762 | -82.48772 | 7991 ft | 198 kts | 256° |
| 2026-04-25 14:54 | 41.17307 | -82.50498 | 7984 ft | 198 kts | 257° |
| 2026-04-25 14:54 | 41.16855 | -82.52232 | 7986 ft | 198 kts | 257° |
| 2026-04-25 14:54 | 41.16405 | -82.53963 | 7986 ft | 199 kts | 257° |
| 2026-04-25 14:54 | 41.15951 | -82.55692 | 7988 ft | 199 kts | 257° |
| 2026-04-25 14:55 | 41.15497 | -82.57423 | 7990 ft | 198 kts | 256° |
| 2026-04-25 14:55 | 41.15044 | -82.59149 | 7991 ft | 198 kts | 257° |
| 2026-04-25 14:55 | 41.14597 | -82.60875 | 7991 ft | 198 kts | 257° |
| 2026-04-25 14:55 | 41.14145 | -82.62595 | 7991 ft | 197 kts | 256° |
| 2026-04-25 14:56 | 41.13698 | -82.64293 | 7989 ft | 197 kts | 256° |
| 2026-04-25 14:56 | 41.13246 | -82.66013 | 7989 ft | 198 kts | 256° |
| 2026-04-25 14:56 | 41.12795 | -82.67734 | 7988 ft | 198 kts | 256° |
| 2026-04-25 14:56 | 41.12346 | -82.69458 | 7989 ft | 197 kts | 257° |
| 2026-04-25 14:57 | 41.11891 | -82.71177 | 7981 ft | 198 kts | 256° |
| 2026-04-25 14:57 | 41.11438 | -82.72895 | 7981 ft | 197 kts | 256° |
| 2026-04-25 14:57 | 41.10983 | -82.74618 | 7983 ft | 199 kts | 256° |
| 2026-04-25 14:57 | 41.10472 | -82.76328 | 7963 ft | 203 kts | 245° |
| 2026-04-25 14:58 | 41.09584 | -82.77816 | 7954 ft | 206 kts | 233° |
| 2026-04-25 14:58 | 41.08668 | -82.79270 | 7948 ft | 205 kts | 235° |
| 2026-04-25 14:58 | 41.07780 | -82.80720 | 7952 ft | 205 kts | 234° |
| 2026-04-25 14:58 | 41.06872 | -82.82172 | 7946 ft | 205 kts | 234° |
| 2026-04-25 14:59 | 41.05958 | -82.83628 | 7949 ft | 205 kts | 234° |
| 2026-04-25 14:59 | 41.05047 | -82.85081 | 7947 ft | 205 kts | 234° |
| 2026-04-25 14:59 | 41.04135 | -82.86533 | 7949 ft | 205 kts | 234° |
| 2026-04-25 14:59 | 41.03220 | -82.87987 | 7942 ft | 205 kts | 234° |
| 2026-04-25 15:00 | 41.02312 | -82.89436 | 7939 ft | 205 kts | 234° |
| 2026-04-25 15:00 | 41.01399 | -82.90889 | 7942 ft | 205 kts | 234° |
| 2026-04-25 15:00 | 41.00488 | -82.92336 | 7944 ft | 205 kts | 234° |
| 2026-04-25 15:00 | 40.99574 | -82.93789 | 7937 ft | 205 kts | 234° |
| 2026-04-25 15:01 | 40.98661 | -82.95236 | 7943 ft | 205 kts | 234° |
| 2026-04-25 15:01 | 40.97748 | -82.96688 | 7938 ft | 205 kts | 234° |
| 2026-04-25 15:01 | 40.96851 | -82.98121 | 7939 ft | 205 kts | 234° |
| 2026-04-25 15:01 | 40.95937 | -82.99572 | 7944 ft | 205 kts | 234° |
| 2026-04-25 15:02 | 40.95022 | -83.01023 | 7942 ft | 205 kts | 234° |
| 2026-04-25 15:02 | 40.94108 | -83.02469 | 7940 ft | 205 kts | 234° |
| 2026-04-25 15:02 | 40.93197 | -83.03910 | 7936 ft | 204 kts | 234° |
| 2026-04-25 15:02 | 40.92286 | -83.05352 | 7941 ft | 204 kts | 234° |
| 2026-04-25 15:03 | 40.91374 | -83.06799 | 7940 ft | 205 kts | 234° |
| 2026-04-25 15:03 | 40.90461 | -83.08247 | 7936 ft | 204 kts | 234° |
| 2026-04-25 15:03 | 40.89547 | -83.09690 | 7941 ft | 204 kts | 234° |
| 2026-04-25 15:03 | 40.88637 | -83.11129 | 7936 ft | 204 kts | 234° |
| 2026-04-25 15:04 | 40.87737 | -83.12548 | 7940 ft | 204 kts | 234° |
| 2026-04-25 15:04 | 40.86825 | -83.13991 | 7937 ft | 204 kts | 234° |
| 2026-04-25 15:04 | 40.85910 | -83.15433 | 7934 ft | 205 kts | 234° |
| 2026-04-25 15:04 | 40.84998 | -83.16875 | 7934 ft | 204 kts | 234° |
| 2026-04-25 15:05 | 40.84088 | -83.18309 | 7939 ft | 204 kts | 234° |
| 2026-04-25 15:05 | 40.83178 | -83.19745 | 7931 ft | 204 kts | 234° |
| 2026-04-25 15:05 | 40.82269 | -83.21180 | 7944 ft | 204 kts | 234° |
| 2026-04-25 15:06 | 40.80445 | -83.24049 | 7941 ft | 204 kts | 234° |
| 2026-04-25 15:06 | 40.79534 | -83.25486 | 7932 ft | 204 kts | 234° |
| 2026-04-25 15:06 | 40.78621 | -83.26923 | 7942 ft | 204 kts | 234° |
| 2026-04-25 15:06 | 40.77707 | -83.28357 | 7950 ft | 204 kts | 233° |
| 2026-04-25 15:07 | 40.76797 | -83.29785 | 7950 ft | 204 kts | 234° |
| 2026-04-25 15:07 | 40.75888 | -83.31215 | 7952 ft | 203 kts | 234° |
| 2026-04-25 15:07 | 40.74989 | -83.32626 | 7953 ft | 203 kts | 234° |
| 2026-04-25 15:07 | 40.74078 | -83.34058 | 7950 ft | 204 kts | 234° |
| 2026-04-25 15:08 | 40.73167 | -83.35491 | 7951 ft | 204 kts | 234° |
| 2026-04-25 15:08 | 40.72248 | -83.36927 | 7952 ft | 204 kts | 233° |
| 2026-04-25 15:08 | 40.71334 | -83.38359 | 7955 ft | 204 kts | 233° |
| 2026-04-25 15:08 | 40.70422 | -83.39789 | 7950 ft | 204 kts | 233° |
| 2026-04-25 15:09 | 40.69507 | -83.41220 | 7950 ft | 204 kts | 234° |
| 2026-04-25 15:09 | 40.68587 | -83.42657 | 7950 ft | 205 kts | 233° |
| 2026-04-25 15:09 | 40.66755 | -83.45522 | 7941 ft | 204 kts | 233° |
| 2026-04-25 15:10 | 40.65837 | -83.46956 | 7942 ft | 204 kts | 234° |
| 2026-04-25 15:10 | 40.65228 | -83.47906 | 7946 ft | 204 kts | 233° |
| 2026-04-25 15:10 | 40.63394 | -83.50767 | 7942 ft | 205 kts | 233° |
| 2026-04-25 15:11 | 40.62477 | -83.52199 | 7947 ft | 204 kts | 233° |
| 2026-04-25 15:11 | 40.61560 | -83.53629 | 7947 ft | 204 kts | 233° |
| 2026-04-25 15:11 | 40.60640 | -83.55063 | 7948 ft | 204 kts | 233° |
| 2026-04-25 15:12 | 40.58807 | -83.57922 | 7941 ft | 204 kts | 233° |
| 2026-04-25 15:12 | 40.57893 | -83.59343 | 7934 ft | 204 kts | 233° |
| 2026-04-25 15:12 | 40.56974 | -83.60772 | 7939 ft | 204 kts | 233° |
| 2026-04-25 15:12 | 40.56366 | -83.61716 | 7939 ft | 205 kts | 233° |
| 2026-04-25 15:13 | 40.55146 | -83.63611 | 7947 ft | 204 kts | 233° |
| 2026-04-25 15:13 | 40.53307 | -83.66465 | 7949 ft | 204 kts | 233° |
| 2026-04-25 15:13 | 40.52392 | -83.67884 | 7954 ft | 204 kts | 233° |
| 2026-04-25 15:14 | 40.51229 | -83.68952 | 7950 ft | 208 kts | 200° |
| 2026-04-25 15:14 | 40.49825 | -83.69405 | 7947 ft | 209 kts | 193° |
| 2026-04-25 15:14 | 40.48403 | -83.69812 | 7949 ft | 209 kts | 193° |
| 2026-04-25 15:14 | 40.46977 | -83.70224 | 7950 ft | 210 kts | 193° |
| 2026-04-25 15:15 | 40.45549 | -83.70635 | 7953 ft | 210 kts | 193° |
| 2026-04-25 15:15 | 40.44121 | -83.71042 | 7954 ft | 209 kts | 193° |
| 2026-04-25 15:15 | 40.42714 | -83.71443 | 7954 ft | 210 kts | 193° |
| 2026-04-25 15:15 | 40.41271 | -83.71856 | 7955 ft | 210 kts | 193° |
| 2026-04-25 15:16 | 40.39861 | -83.72257 | 7954 ft | 210 kts | 193° |
| 2026-04-25 15:16 | 40.38427 | -83.72670 | 7961 ft | 211 kts | 193° |
| 2026-04-25 15:16 | 40.35561 | -83.73488 | 7961 ft | 210 kts | 193° |
| 2026-04-25 15:17 | 40.32692 | -83.74300 | 7825 ft | 216 kts | 193° |
| 2026-04-25 15:17 | 40.31204 | -83.74730 | 7576 ft | 216 kts | 193° |
| 2026-04-25 15:17 | 40.29768 | -83.75143 | 7324 ft | 208 kts | 193° |
| 2026-04-25 15:18 | 40.28374 | -83.75549 | 7076 ft | 203 kts | 193° |
| 2026-04-25 15:18 | 40.25610 | -83.76349 | 6601 ft | 202 kts | 194° |
| 2026-04-25 15:18 | 40.24257 | -83.76746 | 6359 ft | 197 kts | 193° |
| 2026-04-25 15:19 | 40.22924 | -83.77135 | 6097 ft | 195 kts | 193° |
| 2026-04-25 15:19 | 40.22037 | -83.77393 | 5975 ft | 198 kts | 193° |
| 2026-04-25 15:19 | 40.20249 | -83.77910 | 5977 ft | 201 kts | 193° |
| 2026-04-25 15:19 | 40.18926 | -83.78412 | 5978 ft | 196 kts | 208° |
| 2026-04-25 15:20 | 40.17746 | -83.79295 | 5977 ft | 196 kts | 213° |
| 2026-04-25 15:20 | 40.16571 | -83.80227 | 5978 ft | 198 kts | 213° |
| 2026-04-25 15:20 | 40.15386 | -83.81164 | 5978 ft | 199 kts | 213° |
| 2026-04-25 15:20 | 40.14201 | -83.82103 | 5976 ft | 199 kts | 213° |
| 2026-04-25 15:21 | 40.13021 | -83.83060 | 5975 ft | 199 kts | 214° |
| 2026-04-25 15:21 | 40.11848 | -83.84029 | 5978 ft | 200 kts | 215° |
| 2026-04-25 15:21 | 40.10687 | -83.84978 | 5977 ft | 199 kts | 213° |
| 2026-04-25 15:21 | 40.09522 | -83.85947 | 5976 ft | 197 kts | 214° |
| 2026-04-25 15:22 | 40.08366 | -83.86896 | 5975 ft | 195 kts | 214° |
| 2026-04-25 15:22 | 40.07221 | -83.87834 | 5984 ft | 194 kts | 213° |
| 2026-04-25 15:22 | 40.06082 | -83.88780 | 5986 ft | 195 kts | 215° |
| 2026-04-25 15:22 | 40.04928 | -83.89724 | 5991 ft | 197 kts | 214° |
| 2026-04-25 15:23 | 40.03765 | -83.90686 | 5988 ft | 198 kts | 214° |
| 2026-04-25 15:23 | 40.02605 | -83.91651 | 5985 ft | 197 kts | 214° |
| 2026-04-25 15:23 | 40.01448 | -83.92609 | 5983 ft | 197 kts | 214° |
| 2026-04-25 15:23 | 40.00290 | -83.93561 | 5982 ft | 196 kts | 214° |
| 2026-04-25 15:24 | 39.99129 | -83.94515 | 5986 ft | 198 kts | 214° |
| 2026-04-25 15:24 | 39.97972 | -83.95467 | 5987 ft | 199 kts | 214° |
| 2026-04-25 15:24 | 39.96815 | -83.96433 | 5975 ft | 197 kts | 214° |
| 2026-04-25 15:24 | 39.96034 | -83.97081 | 5975 ft | 197 kts | 214° |
| 2026-04-25 15:25 | 39.94502 | -83.98337 | 5972 ft | 196 kts | 214° |
| 2026-04-25 15:25 | 39.93347 | -83.99287 | 5969 ft | 196 kts | 214° |
| 2026-04-25 15:25 | 39.92195 | -84.00232 | 5972 ft | 196 kts | 214° |
| 2026-04-25 15:25 | 39.91042 | -84.01186 | 5971 ft | 196 kts | 214° |
| 2026-04-25 15:26 | 39.89886 | -84.02139 | 5973 ft | 196 kts | 214° |
| 2026-04-25 15:26 | 39.88744 | -84.03089 | 5956 ft | 197 kts | 216° |
| 2026-04-25 15:26 | 39.87572 | -84.04042 | 5691 ft | 194 kts | 214° |
| 2026-04-25 15:26 | 39.86469 | -84.04949 | 5434 ft | 187 kts | 214° |
| 2026-04-25 15:27 | 39.85376 | -84.05859 | 5144 ft | 186 kts | 214° |
| 2026-04-25 15:27 | 39.84276 | -84.06776 | 4765 ft | 188 kts | 214° |
| 2026-04-25 15:27 | 39.81959 | -84.08201 | 4000 ft | 185 kts | 185° |
| 2026-04-25 15:28 | 39.80677 | -84.08320 | 3628 ft | 185 kts | 184° |
| 2026-04-25 15:28 | 39.79389 | -84.08428 | 3259 ft | 185 kts | 183° |
| 2026-04-25 15:28 | 39.78107 | -84.08534 | 2978 ft | 179 kts | 183° |
| 2026-04-25 15:28 | 39.76947 | -84.08627 | 2961 ft | 158 kts | 182° |
| 2026-04-25 15:29 | 39.75872 | -84.08722 | 2960 ft | 149 kts | 184° |
| 2026-04-25 15:29 | 39.74851 | -84.08797 | 2965 ft | 145 kts | 183° |
| 2026-04-25 15:29 | 39.73846 | -84.08860 | 2965 ft | 145 kts | 184° |
| 2026-04-25 15:29 | 39.72842 | -84.08926 | 2965 ft | 144 kts | 183° |
| 2026-04-25 15:30 | 39.71849 | -84.09053 | 2964 ft | 143 kts | 202° |
| 2026-04-25 15:30 | 39.71208 | -84.09906 | 2970 ft | 130 kts | 263° |
| 2026-04-25 15:30 | 39.71139 | -84.11031 | 2980 ft | 127 kts | 274° |
| 2026-04-25 15:30 | 39.71090 | -84.12188 | 2981 ft | 128 kts | 272° |
| 2026-04-25 15:31 | 39.71047 | -84.13349 | 2980 ft | 129 kts | 273° |
| 2026-04-25 15:31 | 39.71007 | -84.14518 | 2994 ft | 130 kts | 274° |
| 2026-04-25 15:31 | 39.70950 | -84.15691 | 2996 ft | 130 kts | 273° |
| 2026-04-25 15:31 | 39.71062 | -84.16814 | 2986 ft | 123 kts | 309° |
| 2026-04-25 15:32 | 39.71655 | -84.17574 | 2995 ft | 121 kts | 323° |
| 2026-04-25 15:32 | 39.72283 | -84.18305 | 2996 ft | 120 kts | 322° |
| 2026-04-25 15:32 | 39.72915 | -84.19008 | 2995 ft | 119 kts | 326° |
| 2026-04-25 15:33 | 39.74278 | -84.20271 | 2969 ft | 120 kts | 335° |
| 2026-04-25 15:33 | 39.75062 | -84.20544 | 2981 ft | 117 kts | 356° |
| 2026-04-25 15:33 | 39.75880 | -84.20622 | 2979 ft | 118 kts | 355° |
| 2026-04-25 15:33 | 39.76698 | -84.20682 | 3001 ft | 117 kts | 357° |
| 2026-04-25 15:34 | 39.77511 | -84.20720 | 3005 ft | 117 kts | 359° |
| 2026-04-25 15:34 | 39.78317 | -84.20751 | 3006 ft | 118 kts | 358° |
| 2026-04-25 15:34 | 39.79134 | -84.20780 | 3009 ft | 116 kts | 359° |
| 2026-04-25 15:34 | 39.79673 | -84.20796 | 2954 ft | 116 kts | 359° |
| 2026-04-25 15:35 | 39.81593 | -84.20864 | 2598 ft | 119 kts | 359° |
| 2026-04-25 15:35 | 39.82427 | -84.20890 | 2435 ft | 119 kts | 359° |
| 2026-04-25 15:35 | 39.83239 | -84.20920 | 2273 ft | 112 kts | 358° |
| 2026-04-25 15:36 | 39.84594 | -84.20970 | 2008 ft | 90 kts | 357° |
| 2026-04-25 15:36 | 39.85252 | -84.20987 | 1889 ft | 96 kts | 358° |
| 2026-04-25 15:36 | 39.85929 | -84.20990 | 1758 ft | 98 kts | 357° |
| 2026-04-25 15:37 | 39.86614 | -84.21035 | 1641 ft | 99 kts | 357° |
| 2026-04-25 15:37 | 39.87297 | -84.21059 | 1495 ft | 100 kts | 359° |
| 2026-04-25 15:37 | 39.88000 | -84.21078 | 1361 ft | 97 kts | 360° |
| 2026-04-25 15:37 | 39.88604 | -84.21084 | 1192 ft | 76 kts | 358° |
| 2026-04-25 15:38 | 39.89078 | -84.21118 | 1094 ft | 68 kts | 356° |
| 2026-04-25 15:38 | 39.89595 | -84.21130 | 1038 ft | 73 kts | 360° |
| 2026-04-25 15:38 | 39.89995 | -84.21154 | 1013 ft | 45 kts | 359° |
| 2026-04-25 15:38 | 39.90154 | -84.21084 | 1013 ft | 22 kts | 87° |
| 2026-04-25 15:39 | 39.90156 | -84.21030 | 1012 ft | 0 kts | 85° |
| 2026-04-25 15:39 | 39.90157 | -84.21024 | 1012 ft | 5 kts | 82° |
| 2026-04-25 15:39 | 39.90162 | -84.20991 | 1011 ft | 0 kts | 75° |
| 2026-04-25 15:39 | 39.90178 | -84.20973 | 1011 ft | 5 kts | 10° |
| 2026-04-25 15:40 | 39.90255 | -84.20968 | 1010 ft | 15 kts | 1° |
| 2026-04-25 15:40 | 39.90292 | -84.20965 | 1011 ft | 17 kts | 4° |
| 2026-04-25 15:40 | 39.90469 | -84.20934 | 1011 ft | 9 kts | 58° |
| 2026-04-25 15:40 | 39.90505 | -84.20866 | 1010 ft | 10 kts | 25° |
| 2026-04-25 15:41 | 39.90533 | -84.20820 | 1009 ft | 7 kts | 62° |
| 2026-04-25 15:41 | 39.90559 | -84.20817 | 1009 ft | 0 kts | 317° |